sensor_id;sensor_type;location;lat;lon;timestamp;pressure;altitude;pressure_sealevel;temperature;humidity
51195;BME280;37259;49.972;19.850;2023-04-09T00:00:12;99310;;;4.7;85.6
51195;BME280;37259;49.972;19.850;2023-04-09T00:01:12;99310;;;4.7;85.7
51195;BME280;37259;49.972;19.850;2023-04-09T00:02:12;99310;;;4.7;85.7
51195;BME280;37259;49.972;19.850;2023-04-09T00:03:12;99310;;;4.7;85.7
51195;BME280;37259;49.972;19.850;2023-04-09T00:04:12;99310;;;4.7;85.7
51195;BME280;37259;49.972;19.850;2023-04-09T00:05:12;99310;;;4.7;85.7
51195;BME280;37259;49.972;19.850;2023-04-09T00:06:12;99310;;;4.7;85.7
51195;BME280;37259;49.972;19.850;2023-04-09T00:07:12;99310;;;4.7;85.7
51195;BME280;37259;49.972;19.850;2023-04-09T00:08:12;99310;;;4.7;85.7
51195;BME280;37259;49.972;19.850;2023-04-09T00:09:12;99310;;;4.7;85.7
51195;BME280;37259;49.972;19.850;2023-04-09T00:10:12;99310;;;4.7;85.7
51195;BME280;37259;49.972;19.850;2023-04-09T00:11:12;99310;;;4.7;85.7
51195;BME280;37259;49.972;19.850;2023-04-09T00:12:12;99310;;;4.7;85.7
51195;BME280;37259;49.972;19.850;2023-04-09T00:13:12;99310;;;4.7;85.7
51195;BME280;37259;49.972;19.850;2023-04-09T00:14:12;99310;;;4.7;85.7
51195;BME280;37259;49.972;19.850;2023-04-09T00:15:12;99310;;;4.7;85.8
51195;BME280;37259;49.972;19.850;2023-04-09T00:16:12;99310;;;4.8;85.8
51195;BME280;37259;49.972;19.850;2023-04-09T00:17:12;99310;;;4.8;85.8
51195;BME280;37259;49.972;19.850;2023-04-09T00:18:12;99310;;;4.8;85.8
51195;BME280;37259;49.972;19.850;2023-04-09T00:19:12;99310;;;4.8;85.9
51195;BME280;37259;49.972;19.850;2023-04-09T00:20:12;99310;;;4.8;85.9
51195;BME280;37259;49.972;19.850;2023-04-09T00:21:12;99320;;;4.8;85.9
51195;BME280;37259;49.972;19.850;2023-04-09T00:22:12;99320;;;4.8;85.9
51195;BME280;37259;49.972;19.850;2023-04-09T00:23:12;99320;;;4.8;85.9
51195;BME280;37259;49.972;19.850;2023-04-09T00:24:12;99320;;;4.9;85.9
51195;BME280;37259;49.972;19.850;2023-04-09T00:25:12;99320;;;4.9;85.9
51195;BME280;37259;49.972;19.850;2023-04-09T00:26:12;99320;;;4.9;85.9
51195;BME280;37259;49.972;19.850;2023-04-09T00:27:12;99320;;;4.9;85.9
51195;BME280;37259;49.972;19.850;2023-04-09T00:28:12;99320;;;4.9;85.9
51195;BME280;37259;49.972;19.850;2023-04-09T00:29:12;99320;;;4.9;85.9
51195;BME280;37259;49.972;19.850;2023-04-09T00:30:12;99320;;;4.9;85.9
51195;BME280;37259;49.972;19.850;2023-04-09T00:31:12;99320;;;4.9;85.9
51195;BME280;37259;49.972;19.850;2023-04-09T00:32:12;99320;;;4.9;85.9
51195;BME280;37259;49.972;19.850;2023-04-09T00:33:12;99320;;;4.9;85.9
51195;BME280;37259;49.972;19.850;2023-04-09T00:34:12;99320;;;4.9;85.9
51195;BME280;37259;49.972;19.850;2023-04-09T00:35:12;99320;;;4.9;85.9
51195;BME280;37259;49.972;19.850;2023-04-09T00:36:12;99320;;;5;85.9
51195;BME280;37259;49.972;19.850;2023-04-09T00:37:12;99320;;;5;85.9
51195;BME280;37259;49.972;19.850;2023-04-09T00:38:12;99320;;;5;85.9
51195;BME280;37259;49.972;19.850;2023-04-09T00:39:11;99320;;;5;85.9
51195;BME280;37259;49.972;19.850;2023-04-09T00:40:12;99320;;;5;85.9
51195;BME280;37259;49.972;19.850;2023-04-09T00:41:12;99320;;;5;85.9
51195;BME280;37259;49.972;19.850;2023-04-09T00:42:12;99320;;;5;85.9
51195;BME280;37259;49.972;19.850;2023-04-09T00:43:12;99320;;;5.1;85.9
51195;BME280;37259;49.972;19.850;2023-04-09T00:44:12;99320;;;5.1;85.9
51195;BME280;37259;49.972;19.850;2023-04-09T00:45:12;99320;;;5.1;85.8
51195;BME280;37259;49.972;19.850;2023-04-09T00:46:12;99320;;;5.1;85.8
51195;BME280;37259;49.972;19.850;2023-04-09T00:47:12;99320;;;5;85.7
51195;BME280;37259;49.972;19.850;2023-04-09T00:48:12;99320;;;5;85.7
51195;BME280;37259;49.972;19.850;2023-04-09T00:49:12;99320;;;5;85.6
51195;BME280;37259;49.972;19.850;2023-04-09T00:50:12;99320;;;5;85.6
51195;BME280;37259;49.972;19.850;2023-04-09T00:51:12;99320;;;5;85.6
51195;BME280;37259;49.972;19.850;2023-04-09T00:52:12;99320;;;5;85.6
51195;BME280;37259;49.972;19.850;2023-04-09T00:53:12;99320;;;5;85.6
51195;BME280;37259;49.972;19.850;2023-04-09T00:54:12;99320;;;5;85.6
51195;BME280;37259;49.972;19.850;2023-04-09T00:55:12;99320;;;5;85.6
51195;BME280;37259;49.972;19.850;2023-04-09T00:56:12;99320;;;5;85.6
51195;BME280;37259;49.972;19.850;2023-04-09T00:57:12;99320;;;4.9;85.5
51195;BME280;37259;49.972;19.850;2023-04-09T00:58:12;99320;;;4.9;85.5
51195;BME280;37259;49.972;19.850;2023-04-09T00:59:12;99320;;;4.9;85.5
51195;BME280;37259;49.972;19.850;2023-04-09T01:00:12;99320;;;4.9;85.5
51195;BME280;37259;49.972;19.850;2023-04-09T01:01:12;99320;;;4.9;85.5
51195;BME280;37259;49.972;19.850;2023-04-09T01:02:12;99320;;;4.9;85.5
51195;BME280;37259;49.972;19.850;2023-04-09T01:03:12;99310;;;4.9;85.5
51195;BME280;37259;49.972;19.850;2023-04-09T01:04:12;99310;;;4.9;85.5
51195;BME280;37259;49.972;19.850;2023-04-09T01:05:12;99310;;;4.8;85.6
51195;BME280;37259;49.972;19.850;2023-04-09T01:06:14;99310;;;4.8;85.6
51195;BME280;37259;49.972;19.850;2023-04-09T01:07:14;99310;;;4.8;85.7
51195;BME280;37259;49.972;19.850;2023-04-09T01:08:13;99310;;;4.8;85.7
51195;BME280;37259;49.972;19.850;2023-04-09T01:09:13;99310;;;4.8;85.7
51195;BME280;37259;49.972;19.850;2023-04-09T01:10:13;99310;;;4.9;85.8
51195;BME280;37259;49.972;19.850;2023-04-09T01:11:15;99310;;;4.9;85.8
51195;BME280;37259;49.972;19.850;2023-04-09T01:12:13;99310;;;4.9;85.8
51195;BME280;37259;49.972;19.850;2023-04-09T01:13:12;99310;;;4.9;85.7
51195;BME280;37259;49.972;19.850;2023-04-09T01:14:13;99310;;;4.9;85.7
51195;BME280;37259;49.972;19.850;2023-04-09T01:15:12;99310;;;4.9;85.6
51195;BME280;37259;49.972;19.850;2023-04-09T01:16:12;99310;;;4.8;85.6
51195;BME280;37259;49.972;19.850;2023-04-09T01:17:14;99310;;;4.8;85.6
51195;BME280;37259;49.972;19.850;2023-04-09T01:18:14;99310;;;4.8;85.5
51195;BME280;37259;49.972;19.850;2023-04-09T01:19:15;99310;;;4.8;85.5
51195;BME280;37259;49.972;19.850;2023-04-09T01:20:12;99310;;;4.8;85.5
51195;BME280;37259;49.972;19.850;2023-04-09T01:21:12;99310;;;4.8;85.5
51195;BME280;37259;49.972;19.850;2023-04-09T01:22:13;99300;;;4.8;85.5
51195;BME280;37259;49.972;19.850;2023-04-09T01:23:14;99300;;;4.8;85.5
51195;BME280;37259;49.972;19.850;2023-04-09T01:24:17;99300;;;4.8;85.5
51195;BME280;37259;49.972;19.850;2023-04-09T01:25:15;99300;;;4.8;85.4
51195;BME280;37259;49.972;19.850;2023-04-09T01:26:16;99300;;;4.8;85.4
51195;BME280;37259;49.972;19.850;2023-04-09T01:27:12;99300;;;4.7;85.4
51195;BME280;37259;49.972;19.850;2023-04-09T01:28:13;99300;;;4.7;85.4
51195;BME280;37259;49.972;19.850;2023-04-09T01:29:12;99300;;;4.7;85.4
51195;BME280;37259;49.972;19.850;2023-04-09T01:30:12;99310;;;4.7;85.3
51195;BME280;37259;49.972;19.850;2023-04-09T01:31:12;99310;;;4.7;85.3
51195;BME280;37259;49.972;19.850;2023-04-09T01:32:12;99310;;;4.7;85.3
51195;BME280;37259;49.972;19.850;2023-04-09T01:33:12;99310;;;4.7;85.3
51195;BME280;37259;49.972;19.850;2023-04-09T01:34:12;99310;;;4.7;85.2
51195;BME280;37259;49.972;19.850;2023-04-09T01:35:12;99310;;;4.7;85.2
51195;BME280;37259;49.972;19.850;2023-04-09T01:36:12;99310;;;4.7;85.1
51195;BME280;37259;49.972;19.850;2023-04-09T01:37:12;99310;;;4.7;85.1
51195;BME280;37259;49.972;19.850;2023-04-09T01:38:12;99310;;;4.6;85.1
51195;BME280;37259;49.972;19.850;2023-04-09T01:39:12;99310;;;4.6;85.1
51195;BME280;37259;49.972;19.850;2023-04-09T01:40:12;99310;;;4.6;85.1
51195;BME280;37259;49.972;19.850;2023-04-09T01:41:13;99310;;;4.6;85.1
51195;BME280;37259;49.972;19.850;2023-04-09T01:42:12;99310;;;4.6;85.1
51195;BME280;37259;49.972;19.850;2023-04-09T01:43:12;99310;;;4.6;85.1
51195;BME280;37259;49.972;19.850;2023-04-09T01:44:12;99310;;;4.6;85.1
51195;BME280;37259;49.972;19.850;2023-04-09T01:45:12;99310;;;4.6;85.1
51195;BME280;37259;49.972;19.850;2023-04-09T01:46:12;99310;;;4.6;85
51195;BME280;37259;49.972;19.850;2023-04-09T01:47:12;99310;;;4.6;85.1
51195;BME280;37259;49.972;19.850;2023-04-09T01:48:12;99310;;;4.6;85.1
51195;BME280;37259;49.972;19.850;2023-04-09T01:49:12;99300;;;4.5;85
51195;BME280;37259;49.972;19.850;2023-04-09T01:50:12;99300;;;4.5;85
51195;BME280;37259;49.972;19.850;2023-04-09T01:51:12;99300;;;4.5;85
51195;BME280;37259;49.972;19.850;2023-04-09T01:52:12;99300;;;4.5;85
51195;BME280;37259;49.972;19.850;2023-04-09T01:53:12;99300;;;4.5;85
51195;BME280;37259;49.972;19.850;2023-04-09T01:54:12;99300;;;4.5;85
51195;BME280;37259;49.972;19.850;2023-04-09T01:55:12;99300;;;4.5;85
51195;BME280;37259;49.972;19.850;2023-04-09T01:56:12;99310;;;4.5;85.1
51195;BME280;37259;49.972;19.850;2023-04-09T01:57:12;99310;;;4.5;85.1
51195;BME280;37259;49.972;19.850;2023-04-09T01:58:12;99310;;;4.5;85.1
51195;BME280;37259;49.972;19.850;2023-04-09T01:59:12;99310;;;4.5;85.1
51195;BME280;37259;49.972;19.850;2023-04-09T02:00:12;99310;;;4.5;85.1
51195;BME280;37259;49.972;19.850;2023-04-09T02:01:13;99310;;;4.5;85.1
51195;BME280;37259;49.972;19.850;2023-04-09T02:02:14;99310;;;4.5;85.1
51195;BME280;37259;49.972;19.850;2023-04-09T02:03:13;99310;;;4.5;85.1
51195;BME280;37259;49.972;19.850;2023-04-09T02:04:14;99310;;;4.5;85.1
51195;BME280;37259;49.972;19.850;2023-04-09T02:05:12;99310;;;4.5;85.1
51195;BME280;37259;49.972;19.850;2023-04-09T02:06:12;99310;;;4.5;85.2
51195;BME280;37259;49.972;19.850;2023-04-09T02:07:13;99310;;;4.5;85.2
51195;BME280;37259;49.972;19.850;2023-04-09T02:08:12;99310;;;4.5;85.2
51195;BME280;37259;49.972;19.850;2023-04-09T02:09:12;99310;;;4.5;85.2
51195;BME280;37259;49.972;19.850;2023-04-09T02:10:12;99310;;;4.4;85.2
51195;BME280;37259;49.972;19.850;2023-04-09T02:11:12;99310;;;4.4;85.2
51195;BME280;37259;49.972;19.850;2023-04-09T02:12:13;99310;;;4.4;85.2
51195;BME280;37259;49.972;19.850;2023-04-09T02:13:12;99320;;;4.4;85.2
51195;BME280;37259;49.972;19.850;2023-04-09T02:14:12;99320;;;4.4;85.2
51195;BME280;37259;49.972;19.850;2023-04-09T02:15:12;99320;;;4.4;85.3
51195;BME280;37259;49.972;19.850;2023-04-09T02:16:12;99320;;;4.4;85.3
51195;BME280;37259;49.972;19.850;2023-04-09T02:17:12;99320;;;4.4;85.3
51195;BME280;37259;49.972;19.850;2023-04-09T02:18:19;99320;;;4.4;85.3
51195;BME280;37259;49.972;19.850;2023-04-09T02:19:12;99320;;;4.4;85.4
51195;BME280;37259;49.972;19.850;2023-04-09T02:20:14;99320;;;4.4;85.4
51195;BME280;37259;49.972;19.850;2023-04-09T02:21:12;99320;;;4.4;85.4
51195;BME280;37259;49.972;19.850;2023-04-09T02:22:12;99320;;;4.4;85.4
51195;BME280;37259;49.972;19.850;2023-04-09T02:23:12;99320;;;4.3;85.4
51195;BME280;37259;49.972;19.850;2023-04-09T02:24:12;99320;;;4.3;85.4
51195;BME280;37259;49.972;19.850;2023-04-09T02:25:12;99320;;;4.3;85.5
51195;BME280;37259;49.972;19.850;2023-04-09T02:26:12;99320;;;4.3;85.5
51195;BME280;37259;49.972;19.850;2023-04-09T02:27:12;99320;;;4.3;85.5
51195;BME280;37259;49.972;19.850;2023-04-09T02:28:12;99320;;;4.3;85.5
51195;BME280;37259;49.972;19.850;2023-04-09T02:29:12;99320;;;4.3;85.5
51195;BME280;37259;49.972;19.850;2023-04-09T02:30:12;99320;;;4.3;85.5
51195;BME280;37259;49.972;19.850;2023-04-09T02:31:12;99320;;;4.3;85.5
51195;BME280;37259;49.972;19.850;2023-04-09T02:32:12;99320;;;4.3;85.6
51195;BME280;37259;49.972;19.850;2023-04-09T02:33:12;99320;;;4.3;85.6
51195;BME280;37259;49.972;19.850;2023-04-09T02:34:12;99320;;;4.4;85.6
51195;BME280;37259;49.972;19.850;2023-04-09T02:35:12;99320;;;4.4;85.6
51195;BME280;37259;49.972;19.850;2023-04-09T02:36:12;99320;;;4.4;85.6
51195;BME280;37259;49.972;19.850;2023-04-09T02:37:12;99320;;;4.4;85.6
51195;BME280;37259;49.972;19.850;2023-04-09T02:38:12;99320;;;4.4;85.6
51195;BME280;37259;49.972;19.850;2023-04-09T02:39:12;99320;;;4.4;85.6
51195;BME280;37259;49.972;19.850;2023-04-09T02:40:12;99320;;;4.4;85.6
51195;BME280;37259;49.972;19.850;2023-04-09T02:41:12;99320;;;4.4;85.6
51195;BME280;37259;49.972;19.850;2023-04-09T02:42:12;99320;;;4.4;85.7
51195;BME280;37259;49.972;19.850;2023-04-09T02:43:12;99320;;;4.3;85.6
51195;BME280;37259;49.972;19.850;2023-04-09T02:44:12;99320;;;4.3;85.6
51195;BME280;37259;49.972;19.850;2023-04-09T02:45:12;99320;;;4.3;85.7
51195;BME280;37259;49.972;19.850;2023-04-09T02:46:12;99320;;;4.3;85.7
51195;BME280;37259;49.972;19.850;2023-04-09T02:47:12;99320;;;4.3;85.7
51195;BME280;37259;49.972;19.850;2023-04-09T02:48:12;99320;;;4.3;85.7
51195;BME280;37259;49.972;19.850;2023-04-09T02:49:12;99320;;;4.3;85.6
51195;BME280;37259;49.972;19.850;2023-04-09T02:50:12;99320;;;4.3;85.6
51195;BME280;37259;49.972;19.850;2023-04-09T02:51:12;99310;;;4.3;85.6
51195;BME280;37259;49.972;19.850;2023-04-09T02:52:12;99310;;;4.3;85.6
51195;BME280;37259;49.972;19.850;2023-04-09T02:53:12;99310;;;4.3;85.6
51195;BME280;37259;49.972;19.850;2023-04-09T02:54:12;99310;;;4.3;85.6
51195;BME280;37259;49.972;19.850;2023-04-09T02:55:12;99310;;;4.3;85.6
51195;BME280;37259;49.972;19.850;2023-04-09T02:56:12;99310;;;4.3;85.6
51195;BME280;37259;49.972;19.850;2023-04-09T02:57:12;99310;;;4.3;85.6
51195;BME280;37259;49.972;19.850;2023-04-09T02:58:12;99310;;;4.3;85.6
51195;BME280;37259;49.972;19.850;2023-04-09T02:59:12;99310;;;4.3;85.6
51195;BME280;37259;49.972;19.850;2023-04-09T03:00:12;99310;;;4.3;85.6
51195;BME280;37259;49.972;19.850;2023-04-09T03:01:12;99310;;;4.3;85.6
51195;BME280;37259;49.972;19.850;2023-04-09T03:02:12;99310;;;4.3;85.6
51195;BME280;37259;49.972;19.850;2023-04-09T03:03:12;99310;;;4.3;85.6
51195;BME280;37259;49.972;19.850;2023-04-09T03:04:12;99310;;;4.3;85.7
51195;BME280;37259;49.972;19.850;2023-04-09T03:05:12;99310;;;4.3;85.7
51195;BME280;37259;49.972;19.850;2023-04-09T03:06:12;99310;;;4.3;85.7
51195;BME280;37259;49.972;19.850;2023-04-09T03:07:12;99310;;;4.3;85.7
51195;BME280;37259;49.972;19.850;2023-04-09T03:08:12;99310;;;4.3;85.7
51195;BME280;37259;49.972;19.850;2023-04-09T03:09:12;99310;;;4.3;85.7
51195;BME280;37259;49.972;19.850;2023-04-09T03:10:12;99310;;;4.4;85.7
51195;BME280;37259;49.972;19.850;2023-04-09T03:11:12;99310;;;4.4;85.7
51195;BME280;37259;49.972;19.850;2023-04-09T03:12:12;99310;;;4.4;85.7
51195;BME280;37259;49.972;19.850;2023-04-09T03:13:12;99310;;;4.4;85.7
51195;BME280;37259;49.972;19.850;2023-04-09T03:14:12;99310;;;4.4;85.7
51195;BME280;37259;49.972;19.850;2023-04-09T03:15:12;99310;;;4.4;85.7
51195;BME280;37259;49.972;19.850;2023-04-09T03:16:12;99310;;;4.4;85.7
51195;BME280;37259;49.972;19.850;2023-04-09T03:17:12;99320;;;4.4;85.7
51195;BME280;37259;49.972;19.850;2023-04-09T03:18:12;99320;;;4.4;85.7
51195;BME280;37259;49.972;19.850;2023-04-09T03:19:12;99320;;;4.4;85.7
51195;BME280;37259;49.972;19.850;2023-04-09T03:20:12;99320;;;4.4;85.7
51195;BME280;37259;49.972;19.850;2023-04-09T03:21:12;99320;;;4.4;85.7
51195;BME280;37259;49.972;19.850;2023-04-09T03:22:12;99320;;;4.4;85.8
51195;BME280;37259;49.972;19.850;2023-04-09T03:23:12;99320;;;4.3;85.8
51195;BME280;37259;49.972;19.850;2023-04-09T03:24:12;99320;;;4.3;85.9
51195;BME280;37259;49.972;19.850;2023-04-09T03:25:12;99320;;;4.3;85.9
51195;BME280;37259;49.972;19.850;2023-04-09T03:26:12;99320;;;4.4;86
51195;BME280;37259;49.972;19.850;2023-04-09T03:27:12;99320;;;4.4;86.1
51195;BME280;37259;49.972;19.850;2023-04-09T03:28:12;99320;;;4.4;86.1
51195;BME280;37259;49.972;19.850;2023-04-09T03:29:12;99320;;;4.4;86.2
51195;BME280;37259;49.972;19.850;2023-04-09T03:30:12;99310;;;4.4;86.2
51195;BME280;37259;49.972;19.850;2023-04-09T03:31:12;99310;;;4.4;86.2
51195;BME280;37259;49.972;19.850;2023-04-09T03:32:12;99310;;;4.4;86.3
51195;BME280;37259;49.972;19.850;2023-04-09T03:33:12;99310;;;4.4;86.3
51195;BME280;37259;49.972;19.850;2023-04-09T03:34:12;99310;;;4.4;86.3
51195;BME280;37259;49.972;19.850;2023-04-09T03:35:12;99310;;;4.5;86.4
51195;BME280;37259;49.972;19.850;2023-04-09T03:36:12;99310;;;4.5;86.4
51195;BME280;37259;49.972;19.850;2023-04-09T03:37:12;99310;;;4.5;86.4
51195;BME280;37259;49.972;19.850;2023-04-09T03:38:12;99310;;;4.5;86.5
51195;BME280;37259;49.972;19.850;2023-04-09T03:39:12;99310;;;4.5;86.5
51195;BME280;37259;49.972;19.850;2023-04-09T03:40:12;99310;;;4.5;86.6
51195;BME280;37259;49.972;19.850;2023-04-09T03:41:12;99310;;;4.5;86.6
51195;BME280;37259;49.972;19.850;2023-04-09T03:42:12;99310;;;4.5;86.6
51195;BME280;37259;49.972;19.850;2023-04-09T03:43:12;99320;;;4.5;86.6
51195;BME280;37259;49.972;19.850;2023-04-09T03:44:12;99310;;;4.5;86.6
51195;BME280;37259;49.972;19.850;2023-04-09T03:45:12;99310;;;4.5;86.7
51195;BME280;37259;49.972;19.850;2023-04-09T03:46:12;99310;;;4.5;86.7
51195;BME280;37259;49.972;19.850;2023-04-09T03:47:12;99310;;;4.5;86.7
51195;BME280;37259;49.972;19.850;2023-04-09T03:48:12;99310;;;4.6;86.7
51195;BME280;37259;49.972;19.850;2023-04-09T03:49:12;99320;;;4.6;86.7
51195;BME280;37259;49.972;19.850;2023-04-09T03:50:12;99320;;;4.6;86.7
51195;BME280;37259;49.972;19.850;2023-04-09T03:51:12;99320;;;4.6;86.7
51195;BME280;37259;49.972;19.850;2023-04-09T03:52:12;99320;;;4.6;86.7
51195;BME280;37259;49.972;19.850;2023-04-09T03:53:12;99320;;;4.6;86.7
51195;BME280;37259;49.972;19.850;2023-04-09T03:54:12;99320;;;4.6;86.7
51195;BME280;37259;49.972;19.850;2023-04-09T03:55:12;99320;;;4.6;86.8
51195;BME280;37259;49.972;19.850;2023-04-09T03:56:12;99320;;;4.6;86.8
51195;BME280;37259;49.972;19.850;2023-04-09T03:57:12;99320;;;4.6;86.8
51195;BME280;37259;49.972;19.850;2023-04-09T03:58:12;99320;;;4.6;86.8
51195;BME280;37259;49.972;19.850;2023-04-09T03:59:12;99310;;;4.6;86.8
51195;BME280;37259;49.972;19.850;2023-04-09T04:00:12;99310;;;4.6;86.8
51195;BME280;37259;49.972;19.850;2023-04-09T04:01:12;99310;;;4.6;86.8
51195;BME280;37259;49.972;19.850;2023-04-09T04:02:12;99310;;;4.6;86.8
51195;BME280;37259;49.972;19.850;2023-04-09T04:03:12;99320;;;4.6;86.9
51195;BME280;37259;49.972;19.850;2023-04-09T04:04:12;99320;;;4.6;87.1
51195;BME280;37259;49.972;19.850;2023-04-09T04:05:12;99320;;;4.6;87.2
51195;BME280;37259;49.972;19.850;2023-04-09T04:06:12;99320;;;4.6;87.2
51195;BME280;37259;49.972;19.850;2023-04-09T04:07:12;99320;;;4.6;87.3
51195;BME280;37259;49.972;19.850;2023-04-09T04:08:12;99320;;;4.6;87.3
51195;BME280;37259;49.972;19.850;2023-04-09T04:09:12;99320;;;4.6;87.3
51195;BME280;37259;49.972;19.850;2023-04-09T04:10:12;99320;;;4.6;87.3
51195;BME280;37259;49.972;19.850;2023-04-09T04:11:12;99320;;;4.7;87.3
51195;BME280;37259;49.972;19.850;2023-04-09T04:12:12;99320;;;4.7;87.3
51195;BME280;37259;49.972;19.850;2023-04-09T04:13:12;99320;;;4.7;87.3
51195;BME280;37259;49.972;19.850;2023-04-09T04:14:12;99330;;;4.7;87.4
51195;BME280;37259;49.972;19.850;2023-04-09T04:15:12;99330;;;4.7;87.4
51195;BME280;37259;49.972;19.850;2023-04-09T04:16:12;99330;;;4.8;87.4
51195;BME280;37259;49.972;19.850;2023-04-09T04:17:12;99330;;;4.8;87.4
51195;BME280;37259;49.972;19.850;2023-04-09T04:18:12;99330;;;4.8;87.4
51195;BME280;37259;49.972;19.850;2023-04-09T04:19:12;99330;;;4.8;87.4
51195;BME280;37259;49.972;19.850;2023-04-09T04:20:12;99330;;;4.9;87.3
51195;BME280;37259;49.972;19.850;2023-04-09T04:21:12;99330;;;4.9;87.3
51195;BME280;37259;49.972;19.850;2023-04-09T04:22:12;99330;;;4.9;87.3
51195;BME280;37259;49.972;19.850;2023-04-09T04:23:12;99330;;;4.9;87.3
51195;BME280;37259;49.972;19.850;2023-04-09T04:24:12;99330;;;4.9;87.3
51195;BME280;37259;49.972;19.850;2023-04-09T04:25:12;99330;;;4.9;87.3
51195;BME280;37259;49.972;19.850;2023-04-09T04:26:12;99330;;;4.9;87.3
51195;BME280;37259;49.972;19.850;2023-04-09T04:27:12;99330;;;5;87.3
51195;BME280;37259;49.972;19.850;2023-04-09T04:28:12;99330;;;5;87.3
51195;BME280;37259;49.972;19.850;2023-04-09T04:29:12;99330;;;5;87.3
51195;BME280;37259;49.972;19.850;2023-04-09T04:30:12;99330;;;5;87.3
51195;BME280;37259;49.972;19.850;2023-04-09T04:31:12;99330;;;5.1;87.3
51195;BME280;37259;49.972;19.850;2023-04-09T04:32:12;99330;;;5.1;87.3
51195;BME280;37259;49.972;19.850;2023-04-09T04:33:12;99330;;;5.1;87.3
51195;BME280;37259;49.972;19.850;2023-04-09T04:34:12;99330;;;5.1;87.3
51195;BME280;37259;49.972;19.850;2023-04-09T04:35:12;99330;;;5.1;87.3
51195;BME280;37259;49.972;19.850;2023-04-09T04:36:12;99330;;;5.2;87.3
51195;BME280;37259;49.972;19.850;2023-04-09T04:37:12;99330;;;5.2;87.3
51195;BME280;37259;49.972;19.850;2023-04-09T04:38:12;99330;;;5.2;87.3
51195;BME280;37259;49.972;19.850;2023-04-09T04:39:12;99330;;;5.2;87.2
51195;BME280;37259;49.972;19.850;2023-04-09T04:40:12;99330;;;5.2;87.2
51195;BME280;37259;49.972;19.850;2023-04-09T04:41:12;99340;;;5.2;87.2
51195;BME280;37259;49.972;19.850;2023-04-09T04:42:12;99340;;;5.2;87.2
51195;BME280;37259;49.972;19.850;2023-04-09T04:43:12;99340;;;5.3;87.2
51195;BME280;37259;49.972;19.850;2023-04-09T04:44:12;99340;;;5.3;87.2
51195;BME280;37259;49.972;19.850;2023-04-09T04:45:12;99340;;;5.3;87.1
51195;BME280;37259;49.972;19.850;2023-04-09T04:46:12;99340;;;5.3;87.1
51195;BME280;37259;49.972;19.850;2023-04-09T04:47:12;99340;;;5.4;87.1
51195;BME280;37259;49.972;19.850;2023-04-09T04:48:12;99340;;;5.4;87.1
51195;BME280;37259;49.972;19.850;2023-04-09T04:49:12;99340;;;5.4;87.1
51195;BME280;37259;49.972;19.850;2023-04-09T04:50:12;99340;;;5.4;87.1
51195;BME280;37259;49.972;19.850;2023-04-09T04:51:12;99340;;;5.4;87
51195;BME280;37259;49.972;19.850;2023-04-09T04:52:12;99340;;;5.4;87
51195;BME280;37259;49.972;19.850;2023-04-09T04:53:12;99340;;;5.5;87
51195;BME280;37259;49.972;19.850;2023-04-09T04:54:12;99340;;;5.5;87
51195;BME280;37259;49.972;19.850;2023-04-09T04:55:12;99340;;;5.5;86.9
51195;BME280;37259;49.972;19.850;2023-04-09T04:56:12;99340;;;5.5;86.9
51195;BME280;37259;49.972;19.850;2023-04-09T04:57:12;99340;;;5.5;86.8
51195;BME280;37259;49.972;19.850;2023-04-09T04:58:12;99340;;;5.5;86.8
51195;BME280;37259;49.972;19.850;2023-04-09T04:59:12;99340;;;5.5;86.6
51195;BME280;37259;49.972;19.850;2023-04-09T05:00:12;99340;;;5.6;86.6
51195;BME280;37259;49.972;19.850;2023-04-09T05:01:12;99340;;;5.6;86.6
51195;BME280;37259;49.972;19.850;2023-04-09T05:02:12;99350;;;5.6;86.6
51195;BME280;37259;49.972;19.850;2023-04-09T05:03:12;99340;;;5.6;86.6
51195;BME280;37259;49.972;19.850;2023-04-09T05:04:12;99350;;;5.6;86.5
51195;BME280;37259;49.972;19.850;2023-04-09T05:05:12;99350;;;5.6;86.5
51195;BME280;37259;49.972;19.850;2023-04-09T05:06:12;99350;;;5.6;86.3
51195;BME280;37259;49.972;19.850;2023-04-09T05:07:12;99350;;;5.6;86.3
51195;BME280;37259;49.972;19.850;2023-04-09T05:08:12;99350;;;5.6;86.2
51195;BME280;37259;49.972;19.850;2023-04-09T05:09:12;99350;;;5.6;86.2
51195;BME280;37259;49.972;19.850;2023-04-09T05:10:12;99350;;;5.6;86.2
51195;BME280;37259;49.972;19.850;2023-04-09T05:11:12;99350;;;5.7;86.1
51195;BME280;37259;49.972;19.850;2023-04-09T05:12:12;99350;;;5.7;86.1
51195;BME280;37259;49.972;19.850;2023-04-09T05:13:12;99350;;;5.7;86.1
51195;BME280;37259;49.972;19.850;2023-04-09T05:14:12;99350;;;5.7;86
51195;BME280;37259;49.972;19.850;2023-04-09T05:15:12;99350;;;5.7;85.9
51195;BME280;37259;49.972;19.850;2023-04-09T05:16:14;99350;;;5.7;85.9
51195;BME280;37259;49.972;19.850;2023-04-09T05:17:12;99350;;;5.7;85.9
51195;BME280;37259;49.972;19.850;2023-04-09T05:18:12;99340;;;5.8;85.8
51195;BME280;37259;49.972;19.850;2023-04-09T05:19:12;99350;;;5.8;85.8
51195;BME280;37259;49.972;19.850;2023-04-09T05:20:12;99350;;;5.8;85.8
51195;BME280;37259;49.972;19.850;2023-04-09T05:21:12;99350;;;5.8;85.8
51195;BME280;37259;49.972;19.850;2023-04-09T05:22:12;99350;;;5.8;85.8
51195;BME280;37259;49.972;19.850;2023-04-09T05:23:12;99350;;;5.8;85.8
51195;BME280;37259;49.972;19.850;2023-04-09T05:24:12;99350;;;5.9;85.8
51195;BME280;37259;49.972;19.850;2023-04-09T05:25:12;99350;;;5.9;85.8
51195;BME280;37259;49.972;19.850;2023-04-09T05:26:12;99350;;;5.9;85.8
51195;BME280;37259;49.972;19.850;2023-04-09T05:27:12;99350;;;5.9;85.8
51195;BME280;37259;49.972;19.850;2023-04-09T05:28:12;99350;;;5.9;85.8
51195;BME280;37259;49.972;19.850;2023-04-09T05:29:12;99350;;;5.9;85.5
51195;BME280;37259;49.972;19.850;2023-04-09T05:30:12;99350;;;5.9;85.5
51195;BME280;37259;49.972;19.850;2023-04-09T05:31:12;99350;;;5.9;85.5
51195;BME280;37259;49.972;19.850;2023-04-09T05:32:12;99350;;;5.9;85.2
51195;BME280;37259;49.972;19.850;2023-04-09T05:33:12;99350;;;5.9;85.2
51195;BME280;37259;49.972;19.850;2023-04-09T05:34:12;99350;;;5.9;85.2
51195;BME280;37259;49.972;19.850;2023-04-09T05:35:12;99350;;;6;85.1
51195;BME280;37259;49.972;19.850;2023-04-09T05:36:13;99350;;;6;85.1
51195;BME280;37259;49.972;19.850;2023-04-09T05:37:12;99350;;;6;85
51195;BME280;37259;49.972;19.850;2023-04-09T05:38:12;99350;;;6;85
51195;BME280;37259;49.972;19.850;2023-04-09T05:39:12;99350;;;6;84.9
51195;BME280;37259;49.972;19.850;2023-04-09T05:40:12;99350;;;6;84.9
51195;BME280;37259;49.972;19.850;2023-04-09T05:41:12;99360;;;6.1;84.9